METAR AND TAF INFORMATION
METAR FOR EKVG
ADDS - METARS form results

(0640 UTC 03 February 2023)
Data provider http://aviationweather.gov/metar/data/
 
METAR text: EKVG 030620Z AUTO 32002KT 9999 SCT043/// 03/M01 Q1011 RMK SCT045/// WIND SKEID 29022KT
Conditions at: EKVG (SORVAAG/VAGAR , DK) observed 0620 UTC 03 February 2023
Temperature: 3.0°C (37°F)
Dewpoint: -1.0°C (30°F) [RH = 75%]
Pressure (altimeter): 29.85 inches Hg (1011.0 mb)
Winds: from the NW (320 degrees) at 2 MPH (2 knots; 1.0 m/s)
Visibility: 6 or more miles (10+ km)
Ceiling: at least 12,000 feet AGL
Clouds: scattered clouds at 4300 feet AGL
Weather: no significant weather observed at this time

METAR text: EKVG 030550Z AUTO 31004KT 220V010 9999 NCD 03/M00 Q1011 RMK NCD WIND SKEID 29025KT
Conditions at: EKVG (SORVAAG/VAGAR , DK) observed 0550 UTC 03 February 2023
Temperature: 3.0°C (37°F)
Dewpoint: 0.0°C (32°F) [RH = 81%]
Pressure (altimeter): 29.85 inches Hg (1011.0 mb)
Winds: from the NW (310 degrees) at 5 MPH (4 knots; 2.1 m/s)
Visibility: 6 or more miles (10+ km)
Ceiling: at least 12,000 feet AGL
Clouds: sky clear below 12,000 feet AGL
Weather: no significant weather observed at this time

Forecast for: EKVG (SORVAAG/VAGAR , DK)
Text: TAF EKVG 030506Z 0306/0315 28017KT 9999 FEW022 BKN035
Forecast period: 0600 to 0800 UTC 03 February 2023
Forecast type: FROM: standard forecast or significant change
Winds: from the W (280 degrees) at 20 MPH (17 knots; 8.7 m/s)
Visibility: 6 or more miles (10+ km)
Ceiling: 3500 feet AGL
Clouds: few clouds at 2200 feet AGL
broken clouds at 3500 feet AGL
Weather: no significant weather forecast for this period
Text: BECMG 0308/0310 21012KT
Forecast period: 0800 to 1200 UTC 03 February 2023
Forecast type: BECOMING: Conditions expected to become as follows by 1000 UTC 03 February 2023
Winds: from the SSW (210 degrees) at 14 MPH (12 knots; 6.2 m/s)
Visibility: 6 or more miles (10+ km)
Ceiling: 3500 feet AGL
Clouds: few clouds at 2200 feet AGL
broken clouds at 3500 feet AGL
Weather: no significant weather forecast for this period
Text: BECMG 0312/0314 15018KT 3500 RADZ BKN006 OVC012
Forecast period: 1200 to 1500 UTC 03 February 2023
Forecast type: BECOMING: Conditions expected to become as follows by 1400 UTC 03 February 2023
Winds: from the SSE (150 degrees) at 21 MPH (18 knots; 9.3 m/s)
Visibility: 2.17 miles (3.49 km)
Ceiling: 600 feet AGL
Clouds: broken clouds at 600 feet AGL
overcast cloud deck at 1200 feet AGL
Weather: RA DZ  (moderate rain, moderate drizzle)

 AIRPORT MAP

 RUNWAY INFORMATION
Runway 13 Runway length 5902 ft Runway width 98 ft
Runway elevation 268 ft Runway displaced threshold 0 ft Runway heading 118
Runway 31 Runway length 5902 ft Runway width 98 ft
Runway elevation 252 ft Runway displaced threshold 0 ft Runway heading 298

 AIRPORT FREQUENCIES
Type AFIS Name AFIS Frequency 124.85 MHZ

 AIRPORT NEAR NAVIGATION AIDS
Type NDB Name Myggenes Frequency 337 KHZ
Type NDB Name Nolso Frequency 404 KHZ
Type NDB Name Vagar Frequency 348 KHZ